GOGS Airport Information

Runway Information
Runway 15 Length 4756 ft width 98 ft
Elevation 52 ft Threshold 0 ft Heading 136
Runway 33 Length 4756 ft Width 98 ft
Elevation 30 ft Threshold 0 ft Heading 316
Airport Frequencies
Type A/G Name RDO Frequency 568 MHZ
Type TWR Name TWR Frequency 118.9 MHZ
Airport Navaids
Type NDB Name Cap Skiring Frequency 398 KHZ
Airport Weather Information & NOTAM
ADDS - METARS form results

(0904 UTC 07 July 2020)
Data provider http://aviationweather.gov/metar/data/
 
Forecast for: GOGS (CAPE SKIRING , SN)
Text: TAF GOGS 070530Z 0706/0806 24007KT 9999 SCT013
Forecast period: 0600 UTC 07 July 2020 to 0600 UTC 08 July 2020
Forecast type: FROM: standard forecast or significant change
Winds: from the WSW (240 degrees) at 8 MPH (7 knots; 3.6 m/s)
Visibility: 6 or more miles 10+ km)
Ceiling: at least 12,000 feet AGL
Clouds: scattered clouds at 1300 feet AGL
Weather: no significant weather forecast for this period